Time;durP1;ratioP1;P1;durP2;ratioP2;P2;SDS_P1;SDS_P2;PMS_P1;PMS_P2;Temp;Humidity;BMP_temperature;BMP_pressure;BME280_temperature;BME280_humidity;BME280_pressure;Samples;Min_cycle;Max_cycle;Signal;HPM_P1;HPM_P2
2022/04/28 00:01:52;;;;;;;45.00;23.10;;;;;;;4.39;67.05;99368.20;433464;1271;111745;-45
2022/04/28 00:12:00;;;;;;;38.60;23.60;;;;;;;4.37;67.39;99368.17;433131;1270;108671;-43
2022/04/28 00:22:08;;;;;;;36.10;21.50;;;;;;;4.39;67.49;99370.52;433147;1270;99244;-42
2022/04/28 00:32:16;;;;;;;46.10;27.20;;;;;;;4.47;68.04;99373.01;433377;1269;109034;-44
2022/04/28 00:42:23;;;;;;;43.90;26.30;;;;;;;4.34;67.92;99381.47;433243;1269;98854;-43
2022/04/28 00:52:31;;;;;;;51.30;28.60;;;;;;;3.99;67.94;99390.09;433429;1271;112575;-43
2022/04/28 01:02:39;;;;;;;47.00;24.90;;;;;;;3.80;68.22;99389.86;433284;1270;108776;-43
2022/04/28 01:12:47;;;;;;;38.50;22.40;;;;;;;3.70;68.32;99383.73;433282;1269;98860;-42
2022/04/28 01:22:55;;;;;;;36.00;20.10;;;;;;;3.66;68.59;99383.52;433272;1271;108866;-44
2022/04/28 01:33:03;;;;;;;41.80;23.70;;;;;;;3.71;68.76;99381.89;433924;1257;99385;-41
2022/04/28 01:43:10;;;;;;;46.40;25.60;;;;;;;3.58;68.78;99378.58;432628;1271;112546;-44
2022/04/28 02:03:42;;;;;;;37.10;21.30;;;;;;;3.48;69.63;99373.37;432583;1270;98549;-43
2022/04/28 02:13:49;;;;;;;35.30;21.20;;;;;;;3.53;69.88;99379.60;432726;1269;112516;-45
2022/04/28 02:23:57;;;;;;;40.10;17.90;;;;;;;3.61;69.76;99384.89;432463;1271;108847;-40
2022/04/28 02:34:04;;;;;;;35.40;20.00;;;;;;;3.43;69.57;99374.01;432506;1271;99233;-44
2022/04/28 02:54:19;;;;;;;45.80;23.90;;;;;;;2.90;70.16;99372.46;432695;1271;99088;-43
2022/04/28 03:04:26;;;;;;;48.70;25.60;;;;;;;2.86;70.40;99378.66;432481;1270;112690;-46
2022/04/28 03:14:33;;;;;;;41.90;25.60;;;;;;;2.91;70.66;99380.04;432536;1271;108909;-43
2022/04/28 03:24:40;;;;;;;71.30;34.00;;;;;;;2.99;70.69;99384.02;432334;1271;99257;-44
2022/04/28 03:34:48;;;;;;;66.70;37.00;;;;;;;3.08;70.74;99384.28;432554;1271;108738;-45
2022/04/28 03:44:55;;;;;;;67.10;36.40;;;;;;;3.19;70.70;99389.08;432485;1271;99298;-43
2022/04/28 03:55:03;;;;;;;90.80;46.60;;;;;;;3.33;70.91;99400.29;432422;1271;112677;-43
2022/04/28 04:05:11;;;;;;;93.30;47.80;;;;;;;3.37;70.86;99408.63;432534;1270;107802;-45
2022/04/28 04:25:24;;;;;;;64.20;36.30;;;;;;;4.20;71.33;99406.09;432521;1270;112438;-43
2022/04/28 04:35:32;;;;;;;83.80;48.60;;;;;;;6.54;71.26;99409.17;432638;1271;108901;-42
2022/04/28 04:45:39;;;;;;;106.80;62.90;;;;;;;8.38;70.09;99407.10;432632;1271;98178;-46
2022/04/28 04:55:46;;;;;;;111.80;67.10;;;;;;;9.14;69.26;99404.33;432435;1270;108909;-42
2022/04/28 05:05:53;;;;;;;138.40;88.40;;;;;;;10.35;68.89;99400.32;432448;1270;99254;-45
2022/04/28 05:16:00;;;;;;;111.50;68.70;;;;;;;11.61;68.17;99401.84;432571;1270;112326;-47
2022/04/28 05:26:07;;;;;;;92.30;53.40;;;;;;;12.58;66.99;99413.36;432367;1270;108732;-44
2022/04/28 05:36:13;;;;;;;88.30;44.50;;;;;;;13.27;66.05;99423.01;432607;1271;98856;-45
2022/04/28 05:46:23;;;;;;;54.60;32.80;;;;;;;14.07;65.47;99425.59;432437;1270;108841;-43
2022/04/28 05:56:30;;;;;;;45.60;27.10;;;;;;;14.91;64.33;99436.12;432404;1270;98030;-43
2022/04/28 06:06:38;;;;;;;28.90;18.10;;;;;;;15.08;62.72;99438.35;432595;1270;112380;-44
2022/04/28 06:16:44;;;;;;;37.50;19.70;;;;;;;15.75;61.79;99440.55;432014;1270;704191;-47
2022/04/28 06:26:52;;;;;;;19.70;12.00;;;;;;;16.56;60.88;99447.56;432629;1271;99155;-44
2022/04/28 06:36:59;;;;;;;12.20;7.80;;;;;;;16.84;58.76;99444.86;432602;1270;108906;-41
2022/04/28 06:47:07;;;;;;;12.50;8.60;;;;;;;17.41;57.25;99442.60;432363;1270;99259;-41
2022/04/28 06:57:14;;;;;;;11.90;6.40;;;;;;;17.98;55.68;99447.88;432502;1270;112459;-44
2022/04/28 07:07:22;;;;;;;9.00;6.70;;;;;;;17.95;53.71;99455.17;432602;1270;108789;-41
2022/04/28 07:17:29;;;;;;;10.90;7.00;;;;;;;17.52;52.64;99460.82;432392;1270;98824;-44
2022/04/28 07:27:36;;;;;;;13.00;7.80;;;;;;;16.97;50.41;99462.77;432581;1271;108988;-45
2022/04/28 07:37:44;;;;;;;12.40;6.70;;;;;;;16.82;49.43;99473.14;432546;1270;99251;-46
2022/04/28 07:47:51;;;;;;;8.40;6.10;;;;;;;16.92;48.96;99469.56;432610;1271;112597;-41
2022/04/28 07:57:58;;;;;;;8.50;6.60;;;;;;;17.74;47.15;99469.64;432521;1270;108779;-47
2022/04/28 08:08:06;;;;;;;11.70;7.60;;;;;;;17.91;45.80;99476.61;432532;1270;99273;-40
2022/04/28 08:18:13;;;;;;;13.70;8.00;;;;;;;17.91;44.05;99476.94;432547;1270;108854;-45
2022/04/28 08:28:20;;;;;;;14.20;7.90;;;;;;;18.01;42.89;99485.10;432525;1271;98484;-44
2022/04/28 08:48:37;;;;;;;10.30;7.10;;;;;;;17.96;42.93;99485.70;432444;1270;108975;-45
2022/04/28 08:58:43;;;;;;;11.40;7.30;;;;;;;17.83;43.00;99490.45;432717;1271;99258;-45
2022/04/28 09:08:50;;;;;;;12.40;8.70;;;;;;;17.86;42.44;99491.73;432432;1270;108838;-41
2022/04/28 09:18:59;;;;;;;12.70;6.20;;;;;;;18.11;42.66;99484.96;432587;1271;98031;-42
2022/04/28 09:29:10;;;;;;;11.20;7.80;;;;;;;18.21;41.97;99480.14;432641;1270;112459;-41
2022/04/28 09:49:29;;;;;;;9.70;6.70;;;;;;;17.67;42.04;99490.42;432586;1271;97978;-43
2022/04/28 09:59:37;;;;;;;11.20;6.50;;;;;;;16.87;42.59;99490.05;432601;1269;108802;-46
2022/04/28 10:09:48;;;;;;;7.70;5.90;;;;;;;16.49;42.42;99484.67;432599;1270;99270;-44
2022/04/28 10:20:00;;;;;;;12.90;5.70;;;;;;;16.72;41.51;99479.68;432570;1271;112098;-43
2022/04/28 10:51:03;;;;;;;7.50;5.30;;;;;;;17.16;39.97;99483.80;432561;1270;108726;-42
2022/04/28 11:01:27;;;;;;;8.60;5.40;;;;;;;16.91;39.98;99480.90;432727;1270;99250;-44
2022/04/28 11:21:52;;;;;;;7.70;5.90;;;;;;;17.44;38.12;99481.02;432623;1270;108805;-42
2022/04/28 11:42:10;;;;;;;6.70;3.90;;;;;;;17.01;37.71;99476.31;432691;1270;108775;-40
2022/04/28 12:02:29;;;;;;;7.40;3.30;;;;;;;17.49;37.62;99472.94;432512;1268;112663;-45
2022/04/28 12:23:01;;;;;;;4.40;3.00;;;;;;;17.51;35.02;99470.82;432491;1270;99266;-43
2022/04/28 12:33:10;;;;;;;3.30;2.50;;;;;;;17.29;35.84;99467.40;432654;1271;107585;-45
2022/04/28 12:53:44;;;;;;;3.70;3.10;;;;;;;17.15;34.86;99463.78;432453;1271;112501;-45
2022/04/28 13:14:04;;;;;;;9.70;4.60;;;;;;;16.86;36.67;99445.53;432535;1270;99281;-48
2022/04/28 13:24:10;;;;;;;8.90;3.80;;;;;;;17.09;36.55;99441.45;432577;1271;108778;-40
2022/04/28 13:34:17;;;;;;;3.80;3.10;;;;;;;17.20;36.67;99441.45;432605;1271;99266;-41
2022/04/28 13:44:24;;;;;;;2.90;2.70;;;;;;;17.21;36.39;99436.54;432608;1271;112506;-48
2022/04/28 13:54:31;;;;;;;8.90;4.20;;;;;;;17.21;35.91;99429.27;432525;1271;109294;-41
2022/04/28 14:04:39;;;;;;;5.70;3.70;;;;;;;17.08;36.08;99430.96;432723;1271;99263;-46
2022/04/28 14:24:54;;;;;;;6.30;3.60;;;;;;;17.00;35.92;99424.20;432622;1271;99269;-42
2022/04/28 14:35:01;;;;;;;6.20;4.20;;;;;;;16.78;35.93;99425.52;432724;1271;112335;-44
2022/04/28 14:45:06;;;;;;;9.30;5.30;;;;;;;16.89;35.85;99426.39;432605;1271;108862;-44
2022/04/28 14:55:14;;;;;;;8.40;5.80;;;;;;;16.81;36.92;99423.36;432765;1271;98322;-43
2022/04/28 15:05:21;;;;;;;11.00;6.20;;;;;;;16.71;37.97;99426.08;432554;1271;108695;-45
2022/04/28 15:15:29;;;;;;;10.20;6.00;;;;;;;16.70;38.39;99430.60;432611;1271;99275;-43
2022/04/28 15:25:39;;;;;;;9.80;7.70;;;;;;;16.50;38.41;99429.86;432630;1271;112400;-45
2022/04/28 15:35:47;;;;;;;11.30;8.10;;;;;;;16.37;39.08;99433.81;432496;1271;109237;-45
2022/04/28 15:45:54;;;;;;;10.20;6.60;;;;;;;16.07;38.87;99441.68;432558;1271;98702;-42
2022/04/28 16:06:07;;;;;;;16.00;10.10;;;;;;;15.86;39.79;99436.27;432568;1271;99290;-42
2022/04/28 16:26:21;;;;;;;14.30;9.10;;;;;;;15.37;39.98;99436.30;432537;1271;108579;-45
2022/04/28 16:36:28;;;;;;;13.70;9.10;;;;;;;15.17;40.75;99440.48;432718;1271;98412;-44
2022/04/28 16:46:33;;;;;;;16.90;10.20;;;;;;;14.96;41.34;99450.81;432624;1271;108875;-44
2022/04/28 16:56:41;;;;;;;17.60;11.60;;;;;;;14.78;41.90;99452.75;432688;1270;99244;-44
2022/04/28 17:06:49;;;;;;;15.10;10.50;;;;;;;14.61;42.40;99465.51;432451;1271;113173;-42
2022/04/28 17:16:58;;;;;;;15.40;11.40;;;;;;;14.38;43.00;99466.09;432542;1271;108895;-46
2022/04/28 17:27:06;;;;;;;22.00;15.00;;;;;;;14.12;43.53;99473.23;432704;1271;99263;-41
2022/04/28 17:37:13;;;;;;;22.10;13.90;;;;;;;13.82;43.96;99489.33;432511;1271;108562;-43
2022/04/28 17:47:20;;;;;;;27.80;17.50;;;;;;;13.54;44.37;99503.34;432616;1271;98032;-43
2022/04/28 18:07:51;;;;;;;102.20;30.80;;;;;;;12.90;45.46;99525.88;432434;1273;108833;-44
2022/04/28 18:17:59;;;;;;;44.90;27.60;;;;;;;12.57;46.03;99542.85;432269;1271;404067;-44
2022/04/28 18:28:06;;;;;;;67.40;35.80;;;;;;;12.20;46.83;99551.28;432646;1271;108546;-43
2022/04/28 18:48:39;;;;;;;83.10;36.80;;;;;;;11.43;48.29;99578.38;432501;1271;112482;-46
2022/04/28 18:58:45;;;;;;;73.90;39.30;;;;;;;11.16;49.08;99592.84;432478;1271;108394;-43
2022/04/28 19:08:52;;;;;;;87.00;46.00;;;;;;;10.95;49.88;99605.77;432509;1271;97972;-40
2022/04/28 19:18:59;;;;;;;80.10;47.30;;;;;;;10.80;50.47;99613.86;432581;1271;108881;-43
2022/04/28 19:29:07;;;;;;;69.50;43.90;;;;;;;10.70;51.04;99621.42;432601;1271;98399;-45
2022/04/28 19:39:14;;;;;;;61.50;34.60;;;;;;;10.63;51.34;99624.91;432505;1271;112821;-42
2022/04/28 19:59:28;;;;;;;47.40;24.10;;;;;;;10.38;52.18;99637.23;432540;1270;98304;-42
2022/04/28 20:09:36;;;;;;;36.00;20.60;;;;;;;10.18;52.48;99637.65;432637;1271;108881;-45
2022/04/28 20:19:43;;;;;;;59.60;30.60;;;;;;;9.97;52.75;99642.45;432571;1271;99401;-45
2022/04/28 20:40:00;;;;;;;40.80;23.30;;;;;;;9.59;53.37;99652.46;432581;1271;108869;-43
2022/04/28 20:50:07;;;;;;;40.40;23.70;;;;;;;9.40;53.70;99655.92;432655;1271;98871;-41
2022/04/28 21:00:16;;;;;;;36.20;23.20;;;;;;;9.17;54.31;99657.54;432606;1271;112709;-46
2022/04/28 21:10:24;;;;;;;29.00;19.30;;;;;;;8.94;54.35;99664.21;432517;1271;108920;-44
2022/04/28 21:30:39;;;;;;;38.70;21.80;;;;;;;8.79;55.04;99668.03;432681;1271;108917;-44
2022/04/28 21:40:47;;;;;;;48.10;25.80;;;;;;;8.80;55.29;99673.15;432602;1271;99299;-46
2022/04/28 21:50:54;;;;;;;36.80;22.70;;;;;;;8.60;55.52;99679.76;432437;1271;112165;-45
2022/04/28 22:01:01;;;;;;;34.90;22.50;;;;;;;8.35;55.85;99682.05;432568;1271;108707;-42
2022/04/28 22:11:13;;;;;;;39.70;23.60;;;;;;;8.18;56.35;99681.84;432511;1271;98870;-44
2022/04/28 22:21:21;;;;;;;39.30;23.90;;;;;;;7.94;56.47;99679.00;432535;1271;112518;-44
2022/04/28 22:41:36;;;;;;;38.70;22.10;;;;;;;7.45;57.18;99674.00;432580;1271;98365;-41
2022/04/28 22:51:43;;;;;;;24.60;16.90;;;;;;;7.34;57.36;99668.44;432504;1271;112403;-41
2022/04/28 23:01:51;;;;;;;30.50;17.80;;;;;;;7.28;57.64;99664.95;432486;1271;108857;-41
2022/04/28 23:11:58;;;;;;;44.00;22.70;;;;;;;7.27;57.95;99663.16;432395;1271;99263;-42
2022/04/28 23:22:03;;;;;;;45.70;23.20;;;;;;;7.12;58.25;99661.35;432529;1271;108714;-42
2022/04/28 23:32:11;;;;;;;51.70;24.50;;;;;;;6.84;58.52;99662.17;432243;1274;98046;-43
2022/04/28 23:42:31;;;;;;;55.50;24.40;;;;;;;6.59;59.11;99665.35;432472;1271;112404;-44
